Terminal Aerodrome Forecast
Issued by NWS

Home | Current Version | Previous Version | Graphics & Text | Print | Product List | Glossary Off
Versions: 1 2 3 4 5 6 7 8 9 10 11 12 13 14 15 16 17 18 19

000
FTUS43 KBIS 010500
TAFDIK
TAF
KDIK 010520Z 0106/0206 03011KT 2SM -SN OVC025
     FM010800 02008KT P6SM BKN060
     FM011700 28005KT P6SM BKN080
     FM012300 18006KT P6SM FEW250=

USA.gov is the U.S. government's official web portal to all federal, state and local government web resources and services.